sensor_id;sensor_type;location;lat;lon;timestamp;pressure;altitude;pressure_sealevel;temperature;humidity
53689;BME280;39583;54.682;30.662;2023-04-06T06:35:10;99957.81;;;7.59;93.85
53689;BME280;39583;54.682;30.662;2023-04-06T06:37:37;99955.69;;;7.90;93.74
53689;BME280;39583;54.682;30.662;2023-04-06T06:40:05;99970.34;;;8.09;92.43
53689;BME280;39583;54.682;30.662;2023-04-06T06:42:34;99967.97;;;8.21;90.12
53689;BME280;39583;54.682;30.662;2023-04-06T06:45:22;99964.59;;;8.34;89.73
53689;BME280;39583;54.682;30.662;2023-04-06T06:47:49;99959.38;;;8.47;89.11
53689;BME280;39583;54.682;30.662;2023-04-06T06:50:16;99962.16;;;8.60;89.67
53689;BME280;39583;54.682;30.662;2023-04-06T06:52:42;99962.41;;;8.72;89.43
53689;BME280;39583;54.682;30.662;2023-04-06T06:55:09;99964.19;;;8.86;89.58
53689;BME280;39583;54.682;30.662;2023-04-06T06:57:36;99963.41;;;8.92;86.93
53689;BME280;39583;54.682;30.662;2023-04-06T07:00:02;99959.25;;;8.90;86.25
53689;BME280;39583;54.682;30.662;2023-04-06T07:02:31;99960.72;;;8.92;85.19
53689;BME280;39583;54.682;30.662;2023-04-06T07:04:57;99955.19;;;9.00;84.21
53689;BME280;39583;54.682;30.662;2023-04-06T07:07:26;99943.56;;;8.93;83.36
53689;BME280;39583;54.682;30.662;2023-04-06T07:09:53;99958.78;;;9.14;82.88
53689;BME280;39583;54.682;30.662;2023-04-06T07:12:18;99954.53;;;9.33;85.38
53689;BME280;39583;54.682;30.662;2023-04-06T07:14:45;99957.47;;;9.44;84.71
53689;BME280;39583;54.682;30.662;2023-04-06T07:17:12;99961.81;;;9.45;83.45
53689;BME280;39583;54.682;30.662;2023-04-06T07:19:39;99960.16;;;9.38;81.08
53689;BME280;39583;54.682;30.662;2023-04-06T07:22:05;99974.00;;;9.41;81.83
53689;BME280;39583;54.682;30.662;2023-04-06T07:24:31;99962.84;;;9.44;80.66
53689;BME280;39583;54.682;30.662;2023-04-06T07:26:58;99968.84;;;9.46;81.74
53689;BME280;39583;54.682;30.662;2023-04-06T07:29:24;99959.81;;;9.61;82.92
53689;BME280;39583;54.682;30.662;2023-04-06T07:31:50;99958.00;;;9.68;82.09
53689;BME280;39583;54.682;30.662;2023-04-06T07:34:17;99971.22;;;9.69;81.61
53689;BME280;39583;54.682;30.662;2023-04-06T07:36:43;99970.00;;;9.72;80.18
53689;BME280;39583;54.682;30.662;2023-04-06T07:39:10;99966.06;;;9.68;79.29
53689;BME280;39583;54.682;30.662;2023-04-06T07:41:36;99961.09;;;9.71;77.29
53689;BME280;39583;54.682;30.662;2023-04-06T07:44:03;99960.72;;;9.81;78.28
53689;BME280;39583;54.682;30.662;2023-04-06T07:46:30;99971.31;;;9.96;78.46
53689;BME280;39583;54.682;30.662;2023-04-06T07:48:57;99966.13;;;10.01;77.82
53689;BME280;39583;54.682;30.662;2023-04-06T07:51:24;99963.69;;;10.06;77.34
53689;BME280;39583;54.682;30.662;2023-04-06T07:53:52;99975.44;;;9.98;75.93
53689;BME280;39583;54.682;30.662;2023-04-06T07:56:18;99967.16;;;10.00;77.27
53689;BME280;39583;54.682;30.662;2023-04-06T07:58:44;99938.81;;;9.91;77.49
53689;BME280;39583;54.682;30.662;2023-04-06T08:01:10;99967.19;;;10.13;78.34
53689;BME280;39583;54.682;30.662;2023-04-06T08:03:36;99975.88;;;10.09;76.46
53689;BME280;39583;54.682;30.662;2023-04-06T08:06:03;99950.63;;;9.90;76.93
53689;BME280;39583;54.682;30.662;2023-04-06T08:08:29;99961.78;;;9.93;76.86
53689;BME280;39583;54.682;30.662;2023-04-06T08:10:55;99968.38;;;9.84;77.00
53689;BME280;39583;54.682;30.662;2023-04-06T08:13:21;99967.72;;;9.75;77.12
53689;BME280;39583;54.682;30.662;2023-04-06T08:15:46;99969.56;;;9.68;76.46
53689;BME280;39583;54.682;30.662;2023-04-06T08:18:12;99966.69;;;9.70;76.20
53689;BME280;39583;54.682;30.662;2023-04-06T08:20:39;99963.00;;;9.78;76.00
53689;BME280;39583;54.682;30.662;2023-04-06T08:23:06;99970.31;;;10.03;77.00
53689;BME280;39583;54.682;30.662;2023-04-06T08:25:37;99965.59;;;10.25;77.26
53689;BME280;39583;54.682;30.662;2023-04-06T08:28:04;99964.16;;;10.49;76.87
53689;BME280;39583;54.682;30.662;2023-04-06T08:30:30;99971.81;;;10.66;76.40
53689;BME280;39583;54.682;30.662;2023-04-06T08:32:56;99973.06;;;10.70;75.45
53689;BME280;39583;54.682;30.662;2023-04-06T08:35:22;99969.75;;;10.81;76.21
53689;BME280;39583;54.682;30.662;2023-04-06T08:37:48;99971.78;;;10.92;76.87
53689;BME280;39583;54.682;30.662;2023-04-06T08:40:15;99963.72;;;10.85;75.27
53689;BME280;39583;54.682;30.662;2023-04-06T08:42:46;99965.59;;;10.72;72.82
53689;BME280;39583;54.682;30.662;2023-04-06T08:45:16;99956.28;;;10.74;74.96
53689;BME280;39583;54.682;30.662;2023-04-06T08:47:43;99963.31;;;10.82;73.29
53689;BME280;39583;54.682;30.662;2023-04-06T08:50:10;99955.84;;;10.84;73.29
53689;BME280;39583;54.682;30.662;2023-04-06T08:52:37;99962.66;;;10.93;72.10
53689;BME280;39583;54.682;30.662;2023-04-06T08:55:05;99965.97;;;11.02;72.81
53689;BME280;39583;54.682;30.662;2023-04-06T08:57:31;99956.63;;;11.04;73.13
53689;BME280;39583;54.682;30.662;2023-04-06T08:59:59;99933.66;;;10.95;73.65
53689;BME280;39583;54.682;30.662;2023-04-06T09:02:27;99954.34;;;11.21;75.05
53689;BME280;39583;54.682;30.662;2023-04-06T09:04:53;99954.91;;;11.36;74.69
53689;BME280;39583;54.682;30.662;2023-04-06T09:07:21;99957.81;;;11.35;70.98
53689;BME280;39583;54.682;30.662;2023-04-06T09:09:47;99946.44;;;11.26;71.81
53689;BME280;39583;54.682;30.662;2023-04-06T09:14:50;99949.34;;;11.25;71.73
53689;BME280;39583;54.682;30.662;2023-04-06T09:17:28;99962.34;;;11.41;72.29
53689;BME280;39583;54.682;30.662;2023-04-06T09:19:56;99957.72;;;11.61;73.63
53689;BME280;39583;54.682;30.662;2023-04-06T09:22:22;99950.16;;;11.76;73.71
53689;BME280;39583;54.682;30.662;2023-04-06T09:24:52;99951.44;;;12.12;76.19
53689;BME280;39583;54.682;30.662;2023-04-06T09:27:30;99944.97;;;12.45;76.85
53689;BME280;39583;54.682;30.662;2023-04-06T09:30:10;99948.84;;;12.49;74.12
53689;BME280;39583;54.682;30.662;2023-04-06T09:32:54;99944.63;;;12.59;72.53
53689;BME280;39583;54.682;30.662;2023-04-06T09:35:22;99952.94;;;12.58;67.37
53689;BME280;39583;54.682;30.662;2023-04-06T09:37:50;99927.06;;;12.50;70.02
53689;BME280;39583;54.682;30.662;2023-04-06T09:40:17;99943.31;;;12.68;70.46
53689;BME280;39583;54.682;30.662;2023-04-06T09:42:48;99945.09;;;12.75;67.33
53689;BME280;39583;54.682;30.662;2023-04-06T09:45:17;99951.63;;;12.67;66.62
53689;BME280;39583;54.682;30.662;2023-04-06T09:47:44;99949.88;;;12.54;63.41
53689;BME280;39583;54.682;30.662;2023-04-06T09:50:12;99950.09;;;12.53;66.54
53689;BME280;39583;54.682;30.662;2023-04-06T09:52:48;99946.50;;;12.59;66.94
53689;BME280;39583;54.682;30.662;2023-04-06T09:55:42;99941.91;;;12.59;65.79
53689;BME280;39583;54.682;30.662;2023-04-06T09:58:28;99942.09;;;12.39;65.16
53689;BME280;39583;54.682;30.662;2023-04-06T10:01:08;99939.66;;;12.31;65.64
53689;BME280;39583;54.682;30.662;2023-04-06T10:03:50;99936.41;;;12.48;66.03
53689;BME280;39583;54.682;30.662;2023-04-06T10:06:21;99944.00;;;12.57;66.11
53689;BME280;39583;54.682;30.662;2023-04-06T10:08:47;99911.97;;;12.61;64.45
53689;BME280;39583;54.682;30.662;2023-04-06T10:11:15;99922.13;;;12.65;62.75
53689;BME280;39583;54.682;30.662;2023-04-06T10:13:42;99932.00;;;12.78;63.51
53689;BME280;39583;54.682;30.662;2023-04-06T10:16:09;99928.72;;;12.94;62.22
53689;BME280;39583;54.682;30.662;2023-04-06T10:18:38;99918.47;;;13.21;61.81
53689;BME280;39583;54.682;30.662;2023-04-06T10:21:09;99924.91;;;13.57;60.95
53689;BME280;39583;54.682;30.662;2023-04-06T10:23:48;99915.53;;;14.01;61.60
53689;BME280;39583;54.682;30.662;2023-04-06T10:26:16;99911.84;;;14.37;61.16
53689;BME280;39583;54.682;30.662;2023-04-06T10:28:43;99905.03;;;14.58;57.88
53689;BME280;39583;54.682;30.662;2023-04-06T10:31:10;99902.81;;;14.67;58.49
53689;BME280;39583;54.682;30.662;2023-04-06T10:33:36;99903.63;;;14.67;57.98
53689;BME280;39583;54.682;30.662;2023-04-06T10:36:21;99904.00;;;14.59;57.42
53689;BME280;39583;54.682;30.662;2023-04-06T10:38:54;99892.16;;;14.42;58.76
53689;BME280;39583;54.682;30.662;2023-04-06T10:41:20;99897.22;;;14.38;58.62
53689;BME280;39583;54.682;30.662;2023-04-06T10:43:55;99892.97;;;14.31;58.28
53689;BME280;39583;54.682;30.662;2023-04-06T10:46:26;99888.38;;;14.31;58.67
53689;BME280;39583;54.682;30.662;2023-04-06T10:48:53;99896.28;;;14.33;57.19
53689;BME280;39583;54.682;30.662;2023-04-06T10:51:19;99891.69;;;14.33;55.84
53689;BME280;39583;54.682;30.662;2023-04-06T10:53:50;99890.88;;;14.33;56.78
53689;BME280;39583;54.682;30.662;2023-04-06T10:56:18;99885.91;;;14.30;56.51
53689;BME280;39583;54.682;30.662;2023-04-06T10:58:52;99883.69;;;14.38;57.10
53689;BME280;39583;54.682;30.662;2023-04-06T11:01:20;99877.94;;;14.58;57.16
53689;BME280;39583;54.682;30.662;2023-04-06T11:03:51;99875.84;;;14.72;56.89
53689;BME280;39583;54.682;30.662;2023-04-06T11:06:20;99879.00;;;14.81;56.12
53689;BME280;39583;54.682;30.662;2023-04-06T11:08:46;99860.25;;;14.79;57.90
53689;BME280;39583;54.682;30.662;2023-04-06T11:11:14;99878.75;;;14.94;58.72
53689;BME280;39583;54.682;30.662;2023-04-06T11:13:55;99883.31;;;15.05;57.88
53689;BME280;39583;54.682;30.662;2023-04-06T11:16:23;99872.81;;;15.09;56.98
53689;BME280;39583;54.682;30.662;2023-04-06T11:26:40;99862.19;;;15.47;56.33
53689;BME280;39583;54.682;30.662;2023-04-06T11:29:06;99860.66;;;15.63;58.01
53689;BME280;39583;54.682;30.662;2023-04-06T11:31:46;99845.97;;;15.76;56.01
53689;BME280;39583;54.682;30.662;2023-04-06T11:34:16;99855.97;;;15.75;56.75
53689;BME280;39583;54.682;30.662;2023-04-06T11:36:43;99854.31;;;15.74;55.65
53689;BME280;39583;54.682;30.662;2023-04-06T11:39:12;99863.66;;;15.78;55.14
53689;BME280;39583;54.682;30.662;2023-04-06T11:41:38;99862.47;;;15.74;55.25
53689;BME280;39583;54.682;30.662;2023-04-06T11:44:05;99847.25;;;15.73;52.81
53689;BME280;39583;54.682;30.662;2023-04-06T11:46:31;99845.34;;;15.74;52.02
53689;BME280;39583;54.682;30.662;2023-04-06T11:48:59;99842.88;;;15.72;52.04
53689;BME280;39583;54.682;30.662;2023-04-06T11:51:26;99842.63;;;15.74;51.40
53689;BME280;39583;54.682;30.662;2023-04-06T11:53:53;99840.03;;;15.79;50.15
53689;BME280;39583;54.682;30.662;2023-04-06T11:56:29;99832.22;;;15.82;52.12
53689;BME280;39583;54.682;30.662;2023-04-06T11:58:56;99838.41;;;15.95;53.42
53689;BME280;39583;54.682;30.662;2023-04-06T12:01:24;99823.81;;;16.01;52.16
53689;BME280;39583;54.682;30.662;2023-04-06T12:03:51;99827.13;;;16.03;52.04
53689;BME280;39583;54.682;30.662;2023-04-06T12:06:18;99840.72;;;16.03;51.71
53689;BME280;39583;54.682;30.662;2023-04-06T12:08:44;99832.06;;;16.06;51.39
53689;BME280;39583;54.682;30.662;2023-04-06T12:11:11;99825.56;;;16.07;51.24
53689;BME280;39583;54.682;30.662;2023-04-06T12:13:37;99812.81;;;16.07;50.54
53689;BME280;39583;54.682;30.662;2023-04-06T12:16:03;99812.31;;;16.10;49.68
53689;BME280;39583;54.682;30.662;2023-04-06T12:18:30;99813.63;;;16.08;50.32
53689;BME280;39583;54.682;30.662;2023-04-06T12:20:56;99819.38;;;16.11;49.73
53689;BME280;39583;54.682;30.662;2023-04-06T12:23:22;99818.00;;;16.09;49.75
53689;BME280;39583;54.682;30.662;2023-04-06T12:25:48;99819.97;;;16.13;49.12
53689;BME280;39583;54.682;30.662;2023-04-06T12:28:13;99821.13;;;16.17;50.68
53689;BME280;39583;54.682;30.662;2023-04-06T12:30:39;99808.88;;;16.15;49.27
53689;BME280;39583;54.682;30.662;2023-04-06T12:33:06;99814.94;;;16.22;49.30
53689;BME280;39583;54.682;30.662;2023-04-06T12:35:36;99816.34;;;16.25;48.71
53689;BME280;39583;54.682;30.662;2023-04-06T12:38:03;99814.13;;;16.21;50.02
53689;BME280;39583;54.682;30.662;2023-04-06T12:40:28;99818.56;;;16.28;49.67
53689;BME280;39583;54.682;30.662;2023-04-06T12:42:55;99810.50;;;16.33;49.18
53689;BME280;39583;54.682;30.662;2023-04-06T12:45:21;99799.44;;;16.39;49.93
53689;BME280;39583;54.682;30.662;2023-04-06T12:47:47;99799.78;;;16.43;49.49
53689;BME280;39583;54.682;30.662;2023-04-06T12:50:12;99806.28;;;16.42;48.58
53689;BME280;39583;54.682;30.662;2023-04-06T12:52:38;99805.78;;;16.45;48.50
53689;BME280;39583;54.682;30.662;2023-04-06T12:55:05;99810.91;;;16.41;47.89
53689;BME280;39583;54.682;30.662;2023-04-06T12:57:31;99803.88;;;16.45;47.93
53689;BME280;39583;54.682;30.662;2023-04-06T12:59:57;99806.28;;;16.42;46.70
53689;BME280;39583;54.682;30.662;2023-04-06T13:02:24;99814.84;;;16.34;46.65
53689;BME280;39583;54.682;30.662;2023-04-06T13:04:50;99810.81;;;16.36;48.49
53689;BME280;39583;54.682;30.662;2023-04-06T13:07:16;99804.72;;;16.46;49.24
53689;BME280;39583;54.682;30.662;2023-04-06T13:09:42;99813.69;;;16.46;47.92
53689;BME280;39583;54.682;30.662;2023-04-06T13:12:08;99816.91;;;16.43;47.20
53689;BME280;39583;54.682;30.662;2023-04-06T13:14:34;99815.56;;;16.46;47.87
53689;BME280;39583;54.682;30.662;2023-04-06T13:17:00;99799.78;;;16.43;47.51
53689;BME280;39583;54.682;30.662;2023-04-06T13:19:26;99797.94;;;16.48;48.39
53689;BME280;39583;54.682;30.662;2023-04-06T13:21:52;99810.72;;;16.48;49.40
53689;BME280;39583;54.682;30.662;2023-04-06T13:24:18;99797.69;;;16.50;48.16
53689;BME280;39583;54.682;30.662;2023-04-06T13:26:45;99809.13;;;16.52;47.07
53689;BME280;39583;54.682;30.662;2023-04-06T13:29:11;99798.84;;;16.54;47.65
53689;BME280;39583;54.682;30.662;2023-04-06T13:31:37;99802.63;;;16.53;47.67
53689;BME280;39583;54.682;30.662;2023-04-06T13:34:04;99801.88;;;16.58;47.93
53689;BME280;39583;54.682;30.662;2023-04-06T13:36:30;99794.88;;;16.62;48.35
53689;BME280;39583;54.682;30.662;2023-04-06T13:38:57;99798.84;;;16.71;47.06
53689;BME280;39583;54.682;30.662;2023-04-06T13:41:24;99798.00;;;16.70;46.93
53689;BME280;39583;54.682;30.662;2023-04-06T13:43:52;99798.88;;;16.76;48.00
53689;BME280;39583;54.682;30.662;2023-04-06T13:46:18;99802.19;;;16.78;47.12
53689;BME280;39583;54.682;30.662;2023-04-06T13:48:44;99781.69;;;16.53;46.96
53689;BME280;39583;54.682;30.662;2023-04-06T13:51:11;99793.38;;;16.32;47.14
53689;BME280;39583;54.682;30.662;2023-04-06T13:53:38;99800.22;;;16.18;47.90
53689;BME280;39583;54.682;30.662;2023-04-06T13:56:04;99790.00;;;16.08;48.38
53689;BME280;39583;54.682;30.662;2023-04-06T13:58:31;99792.72;;;16.08;47.60
53689;BME280;39583;54.682;30.662;2023-04-06T14:01:06;99796.19;;;16.04;46.24
53689;BME280;39583;54.682;30.662;2023-04-06T14:03:33;99794.69;;;15.96;46.24
53689;BME280;39583;54.682;30.662;2023-04-06T14:05:59;99792.47;;;15.93;46.42
53689;BME280;39583;54.682;30.662;2023-04-06T14:08:25;99802.34;;;15.99;47.10
53689;BME280;39583;54.682;30.662;2023-04-06T14:10:51;99797.41;;;16.13;46.65
53689;BME280;39583;54.682;30.662;2023-04-06T14:13:17;99798.13;;;16.25;47.08
53689;BME280;39583;54.682;30.662;2023-04-06T14:15:42;99805.22;;;16.26;47.18
53689;BME280;39583;54.682;30.662;2023-04-06T14:18:09;99797.75;;;16.16;46.87
53689;BME280;39583;54.682;30.662;2023-04-06T14:20:35;99803.84;;;16.07;46.91
53689;BME280;39583;54.682;30.662;2023-04-06T14:23:02;99806.06;;;15.93;46.08
53689;BME280;39583;54.682;30.662;2023-04-06T14:25:29;99795.28;;;15.81;45.39
53689;BME280;39583;54.682;30.662;2023-04-06T14:28:00;99805.13;;;15.71;46.09
53689;BME280;39583;54.682;30.662;2023-04-06T14:30:26;99802.84;;;15.62;46.45
53689;BME280;39583;54.682;30.662;2023-04-06T14:32:57;99801.63;;;15.58;45.95
53689;BME280;39583;54.682;30.662;2023-04-06T14:35:23;99804.34;;;15.58;45.56
53689;BME280;39583;54.682;30.662;2023-04-06T14:37:50;99797.41;;;15.62;46.08
53689;BME280;39583;54.682;30.662;2023-04-06T14:40:16;99812.44;;;15.70;45.92
53689;BME280;39583;54.682;30.662;2023-04-06T14:42:42;99803.91;;;15.78;45.27
53689;BME280;39583;54.682;30.662;2023-04-06T14:45:08;99811.31;;;15.83;45.76
53689;BME280;39583;54.682;30.662;2023-04-06T14:47:34;99801.84;;;15.85;45.21
53689;BME280;39583;54.682;30.662;2023-04-06T14:50:00;99804.31;;;15.87;45.41
53689;BME280;39583;54.682;30.662;2023-04-06T14:52:26;99816.00;;;15.87;45.57
53689;BME280;39583;54.682;30.662;2023-04-06T14:54:53;99815.03;;;15.77;45.82
53689;BME280;39583;54.682;30.662;2023-04-06T14:57:19;99817.06;;;15.70;46.46
53689;BME280;39583;54.682;30.662;2023-04-06T14:59:45;99813.44;;;15.64;45.42
53689;BME280;39583;54.682;30.662;2023-04-06T15:02:11;99810.38;;;15.60;45.56
53689;BME280;39583;54.682;30.662;2023-04-06T15:04:36;99806.38;;;15.63;46.04
53689;BME280;39583;54.682;30.662;2023-04-06T15:07:02;99816.72;;;15.66;45.36
53689;BME280;39583;54.682;30.662;2023-04-06T15:09:28;99806.78;;;15.72;45.35
53689;BME280;39583;54.682;30.662;2023-04-06T15:11:54;99807.78;;;15.82;45.31
53689;BME280;39583;54.682;30.662;2023-04-06T15:14:21;99811.16;;;15.89;44.96
53689;BME280;39583;54.682;30.662;2023-04-06T15:16:47;99817.06;;;15.86;45.14
53689;BME280;39583;54.682;30.662;2023-04-06T15:19:13;99803.41;;;15.81;44.57
53689;BME280;39583;54.682;30.662;2023-04-06T15:21:39;99810.31;;;15.72;45.15
53689;BME280;39583;54.682;30.662;2023-04-06T15:24:05;99814.84;;;15.67;44.76
53689;BME280;39583;54.682;30.662;2023-04-06T15:26:35;99814.72;;;15.61;45.27
53689;BME280;39583;54.682;30.662;2023-04-06T15:29:02;99812.47;;;15.58;45.20
53689;BME280;39583;54.682;30.662;2023-04-06T15:31:29;99813.59;;;15.46;44.83
53689;BME280;39583;54.682;30.662;2023-04-06T15:33:55;99828.66;;;15.37;45.39
53689;BME280;39583;54.682;30.662;2023-04-06T15:36:26;99824.41;;;15.29;45.29
53689;BME280;39583;54.682;30.662;2023-04-06T15:38:55;99823.16;;;15.20;45.63
53689;BME280;39583;54.682;30.662;2023-04-06T15:41:21;99825.66;;;15.10;45.57
53689;BME280;39583;54.682;30.662;2023-04-06T15:43:48;99821.78;;;15.05;45.70
53689;BME280;39583;54.682;30.662;2023-04-06T15:46:16;99812.63;;;14.83;45.61
53689;BME280;39583;54.682;30.662;2023-04-06T15:48:42;99827.63;;;14.86;45.69
53689;BME280;39583;54.682;30.662;2023-04-06T15:51:08;99834.22;;;14.78;45.91
53689;BME280;39583;54.682;30.662;2023-04-06T15:53:34;99828.31;;;14.69;46.24
53689;BME280;39583;54.682;30.662;2023-04-06T15:56:01;99845.91;;;14.67;46.06
53689;BME280;39583;54.682;30.662;2023-04-06T15:58:28;99834.38;;;14.60;46.24
53689;BME280;39583;54.682;30.662;2023-04-06T16:00:56;99832.34;;;14.55;46.46
53689;BME280;39583;54.682;30.662;2023-04-06T16:03:22;99839.56;;;14.50;46.64
53689;BME280;39583;54.682;30.662;2023-04-06T16:05:49;99837.38;;;14.40;46.65
53689;BME280;39583;54.682;30.662;2023-04-06T16:08:15;99847.66;;;14.38;46.57
53689;BME280;39583;54.682;30.662;2023-04-06T16:10:41;99843.16;;;14.32;46.99
53689;BME280;39583;54.682;30.662;2023-04-06T16:13:08;99842.94;;;14.22;47.32
53689;BME280;39583;54.682;30.662;2023-04-06T16:15:34;99847.75;;;14.20;47.68
53689;BME280;39583;54.682;30.662;2023-04-06T16:18:00;99843.03;;;14.15;47.58
53689;BME280;39583;54.682;30.662;2023-04-06T16:20:29;99839.63;;;14.08;47.49
53689;BME280;39583;54.682;30.662;2023-04-06T16:22:55;99848.19;;;14.05;47.54
53689;BME280;39583;54.682;30.662;2023-04-06T16:25:23;99858.66;;;14.01;47.67
53689;BME280;39583;54.682;30.662;2023-04-06T16:27:48;99859.38;;;13.97;48.00
53689;BME280;39583;54.682;30.662;2023-04-06T16:30:14;99861.69;;;13.93;48.02
53689;BME280;39583;54.682;30.662;2023-04-06T16:32:41;99866.16;;;13.87;47.97
53689;BME280;39583;54.682;30.662;2023-04-06T16:35:09;99872.28;;;13.83;47.72
53689;BME280;39583;54.682;30.662;2023-04-06T16:37:35;99869.00;;;13.81;48.00
53689;BME280;39583;54.682;30.662;2023-04-06T16:40:01;99848.78;;;13.65;47.82
53689;BME280;39583;54.682;30.662;2023-04-06T16:42:28;99874.78;;;13.66;48.29
53689;BME280;39583;54.682;30.662;2023-04-06T16:44:53;99881.84;;;13.55;48.33
53689;BME280;39583;54.682;30.662;2023-04-06T16:47:20;99885.66;;;13.48;48.60
53689;BME280;39583;54.682;30.662;2023-04-06T16:49:46;99887.44;;;13.42;48.88
53689;BME280;39583;54.682;30.662;2023-04-06T16:52:12;99890.19;;;13.36;49.06
53689;BME280;39583;54.682;30.662;2023-04-06T16:54:38;99884.44;;;13.32;49.08
53689;BME280;39583;54.682;30.662;2023-04-06T16:57:03;99891.56;;;13.26;49.23
53689;BME280;39583;54.682;30.662;2023-04-06T16:59:29;99879.19;;;13.19;49.41
53689;BME280;39583;54.682;30.662;2023-04-06T17:01:56;99891.25;;;13.16;49.32
53689;BME280;39583;54.682;30.662;2023-04-06T17:04:22;99901.66;;;13.13;49.15
53689;BME280;39583;54.682;30.662;2023-04-06T17:06:49;99895.91;;;13.09;49.18
53689;BME280;39583;54.682;30.662;2023-04-06T17:09:17;99900.56;;;13.02;49.80
53689;BME280;39583;54.682;30.662;2023-04-06T17:11:43;99901.44;;;12.96;49.85
53689;BME280;39583;54.682;30.662;2023-04-06T17:14:09;99901.53;;;12.89;49.75
53689;BME280;39583;54.682;30.662;2023-04-06T17:16:35;99900.09;;;12.87;49.83
53689;BME280;39583;54.682;30.662;2023-04-06T17:19:01;99912.63;;;12.81;50.04
53689;BME280;39583;54.682;30.662;2023-04-06T17:21:27;99908.09;;;12.75;50.39
53689;BME280;39583;54.682;30.662;2023-04-06T17:23:53;99892.91;;;12.56;50.46
53689;BME280;39583;54.682;30.662;2023-04-06T17:26:19;99907.81;;;12.65;50.58
53689;BME280;39583;54.682;30.662;2023-04-06T17:28:46;99917.59;;;12.59;50.46
53689;BME280;39583;54.682;30.662;2023-04-06T17:31:13;99912.88;;;12.55;50.83
53689;BME280;39583;54.682;30.662;2023-04-06T17:33:40;99921.84;;;12.49;50.77
53689;BME280;39583;54.682;30.662;2023-04-06T17:36:07;99913.00;;;12.42;51.12
53689;BME280;39583;54.682;30.662;2023-04-06T17:38:37;99919.31;;;12.29;51.27
53689;BME280;39583;54.682;30.662;2023-04-06T17:41:09;99924.16;;;12.20;51.39
53689;BME280;39583;54.682;30.662;2023-04-06T17:43:35;99923.41;;;12.13;51.82
53689;BME280;39583;54.682;30.662;2023-04-06T17:46:02;99933.19;;;12.07;51.93
53689;BME280;39583;54.682;30.662;2023-04-06T17:48:28;99925.75;;;12.03;52.07
53689;BME280;39583;54.682;30.662;2023-04-06T17:50:55;99925.38;;;11.99;52.11
53689;BME280;39583;54.682;30.662;2023-04-06T17:53:21;99924.94;;;11.96;52.13
53689;BME280;39583;54.682;30.662;2023-04-06T17:55:47;99935.97;;;11.94;52.30
53689;BME280;39583;54.682;30.662;2023-04-06T17:58:13;99920.22;;;11.91;52.41
53689;BME280;39583;54.682;30.662;2023-04-06T18:00:39;99927.72;;;11.89;52.38
53689;BME280;39583;54.682;30.662;2023-04-06T18:03:06;99929.59;;;11.82;52.43
53689;BME280;39583;54.682;30.662;2023-04-06T18:05:32;99931.88;;;11.78;52.72
53689;BME280;39583;54.682;30.662;2023-04-06T18:07:58;99938.53;;;11.76;52.73
53689;BME280;39583;54.682;30.662;2023-04-06T18:10:25;99931.50;;;11.75;52.93
53689;BME280;39583;54.682;30.662;2023-04-06T18:12:51;99940.19;;;11.77;52.83
53689;BME280;39583;54.682;30.662;2023-04-06T18:15:17;99933.38;;;11.74;53.11
53689;BME280;39583;54.682;30.662;2023-04-06T18:17:44;99926.31;;;11.73;53.15
53689;BME280;39583;54.682;30.662;2023-04-06T18:20:10;99927.97;;;11.74;52.90
53689;BME280;39583;54.682;30.662;2023-04-06T18:22:36;99930.06;;;11.72;53.21
53689;BME280;39583;54.682;30.662;2023-04-06T18:25:03;99910.63;;;11.57;53.31
53689;BME280;39583;54.682;30.662;2023-04-06T18:27:29;99940.25;;;11.64;53.41
53689;BME280;39583;54.682;30.662;2023-04-06T18:29:55;99937.59;;;11.57;53.64
53689;BME280;39583;54.682;30.662;2023-04-06T18:32:21;99932.44;;;11.49;53.64
53689;BME280;39583;54.682;30.662;2023-04-06T18:34:48;99937.22;;;11.47;53.87
